sensor_id;sensor_type;location;lat;lon;timestamp;P1;durP1;ratioP1;P2;durP2;ratioP2
53652;SDS011;39553;52.954;5.932;2023-03-23T00:00:54;33.72;;;20.00;;
53652;SDS011;39553;52.954;5.932;2023-03-23T00:04:09;33.45;;;20.38;;
53652;SDS011;39553;52.954;5.932;2023-03-23T00:10:19;27.98;;;17.98;;
53652;SDS011;39553;52.954;5.932;2023-03-23T00:13:31;21.40;;;13.00;;
53652;SDS011;39553;52.954;5.932;2023-03-23T00:16:14;22.92;;;14.85;;
53652;SDS011;39553;52.954;5.932;2023-03-23T00:19:11;19.27;;;10.98;;
53652;SDS011;39553;52.954;5.932;2023-03-23T00:22:04;5.68;;;4.43;;
53652;SDS011;39553;52.954;5.932;2023-03-23T00:28:46;3.08;;;1.55;;
53652;SDS011;39553;52.954;5.932;2023-03-23T00:31:45;5.30;;;1.58;;
53652;SDS011;39553;52.954;5.932;2023-03-23T00:34:48;4.45;;;2.03;;
53652;SDS011;39553;52.954;5.932;2023-03-23T00:40:55;5.68;;;2.70;;
53652;SDS011;39553;52.954;5.932;2023-03-23T00:43:25;7.72;;;3.97;;
53652;SDS011;39553;52.954;5.932;2023-03-23T01:00:08;16.48;;;9.25;;
53652;SDS011;39553;52.954;5.932;2023-03-23T01:09:37;17.77;;;8.85;;
53652;SDS011;39553;52.954;5.932;2023-03-23T01:12:31;16.45;;;8.93;;
53652;SDS011;39553;52.954;5.932;2023-03-23T01:15:18;18.20;;;9.50;;
53652;SDS011;39553;52.954;5.932;2023-03-23T01:27:52;8.80;;;6.35;;
53652;SDS011;39553;52.954;5.932;2023-03-23T01:30:50;12.48;;;7.13;;
53652;SDS011;39553;52.954;5.932;2023-03-23T01:33:48;15.85;;;6.63;;
53652;SDS011;39553;52.954;5.932;2023-03-23T01:36:46;11.23;;;6.22;;
53652;SDS011;39553;52.954;5.932;2023-03-23T01:39:36;14.05;;;6.50;;
53652;SDS011;39553;52.954;5.932;2023-03-23T01:42:12;9.00;;;6.65;;
53652;SDS011;39553;52.954;5.932;2023-03-23T01:48:19;17.67;;;6.75;;
53652;SDS011;39553;52.954;5.932;2023-03-23T01:51:16;11.25;;;4.97;;
53652;SDS011;39553;52.954;5.932;2023-03-23T01:54:27;12.25;;;5.85;;
53652;SDS011;39553;52.954;5.932;2023-03-23T01:57:05;11.95;;;6.03;;
53652;SDS011;39553;52.954;5.932;2023-03-23T01:59:40;14.15;;;5.82;;
53652;SDS011;39553;52.954;5.932;2023-03-23T02:02:29;12.80;;;6.38;;
53652;SDS011;39553;52.954;5.932;2023-03-23T02:04:58;13.82;;;5.82;;
53652;SDS011;39553;52.954;5.932;2023-03-23T02:07:38;10.00;;;5.28;;
53652;SDS011;39553;52.954;5.932;2023-03-23T02:12:49;11.85;;;5.03;;
53652;SDS011;39553;52.954;5.932;2023-03-23T02:15:26;9.25;;;5.45;;
53652;SDS011;39553;52.954;5.932;2023-03-23T02:18:37;9.95;;;4.63;;
53652;SDS011;39553;52.954;5.932;2023-03-23T02:24:28;7.60;;;4.90;;
53652;SDS011;39553;52.954;5.932;2023-03-23T02:31:22;7.20;;;4.25;;
53652;SDS011;39553;52.954;5.932;2023-03-23T02:36:37;6.22;;;4.50;;
53652;SDS011;39553;52.954;5.932;2023-03-23T02:39:24;12.85;;;4.72;;
53652;SDS011;39553;52.954;5.932;2023-03-23T02:45:12;8.13;;;4.35;;
53652;SDS011;39553;52.954;5.932;2023-03-23T02:47:45;6.43;;;4.70;;
53652;SDS011;39553;52.954;5.932;2023-03-23T02:50:40;6.93;;;4.32;;
53652;SDS011;39553;52.954;5.932;2023-03-23T02:59:15;10.55;;;4.55;;
53652;SDS011;39553;52.954;5.932;2023-03-23T03:04:30;6.55;;;3.78;;
53652;SDS011;39553;52.954;5.932;2023-03-23T03:07:19;9.18;;;4.10;;
53652;SDS011;39553;52.954;5.932;2023-03-23T03:10:13;8.07;;;4.22;;
53652;SDS011;39553;52.954;5.932;2023-03-23T03:19:15;8.60;;;3.97;;
53652;SDS011;39553;52.954;5.932;2023-03-23T03:29:00;7.97;;;4.22;;
53652;SDS011;39553;52.954;5.932;2023-03-23T03:32:00;9.85;;;5.00;;
53652;SDS011;39553;52.954;5.932;2023-03-23T03:35:01;8.02;;;4.40;;
53652;SDS011;39553;52.954;5.932;2023-03-23T03:37:36;7.45;;;4.75;;
53652;SDS011;39553;52.954;5.932;2023-03-23T03:40:20;14.38;;;5.20;;
53652;SDS011;39553;52.954;5.932;2023-03-23T03:42:53;11.90;;;5.35;;
53652;SDS011;39553;52.954;5.932;2023-03-23T03:45:37;6.18;;;3.10;;
53652;SDS011;39553;52.954;5.932;2023-03-23T03:48:06;7.85;;;3.90;;
53652;SDS011;39553;52.954;5.932;2023-03-23T03:50:38;5.15;;;2.90;;
53652;SDS011;39553;52.954;5.932;2023-03-23T03:55:51;6.47;;;4.50;;
53652;SDS011;39553;52.954;5.932;2023-03-23T03:58:38;17.75;;;5.20;;
53652;SDS011;39553;52.954;5.932;2023-03-23T04:01:08;10.82;;;5.20;;
53652;SDS011;39553;52.954;5.932;2023-03-23T04:03:54;8.50;;;4.47;;
53652;SDS011;39553;52.954;5.932;2023-03-23T04:06:33;8.85;;;4.68;;
53652;SDS011;39553;52.954;5.932;2023-03-23T04:09:20;12.02;;;3.63;;
53652;SDS011;39553;52.954;5.932;2023-03-23T04:11:50;11.05;;;4.22;;
53652;SDS011;39553;52.954;5.932;2023-03-23T04:14:15;7.68;;;4.25;;
53652;SDS011;39553;52.954;5.932;2023-03-23T04:16:55;6.93;;;3.90;;
53652;SDS011;39553;52.954;5.932;2023-03-23T04:19:26;6.25;;;4.00;;
53652;SDS011;39553;52.954;5.932;2023-03-23T04:21:57;8.35;;;4.10;;
53652;SDS011;39553;52.954;5.932;2023-03-23T04:24:28;10.15;;;5.10;;
53652;SDS011;39553;52.954;5.932;2023-03-23T04:27:33;9.13;;;4.75;;
53652;SDS011;39553;52.954;5.932;2023-03-23T04:30:20;11.05;;;4.68;;
53652;SDS011;39553;52.954;5.932;2023-03-23T04:32:48;8.40;;;4.32;;
53652;SDS011;39553;52.954;5.932;2023-03-23T04:35:23;12.98;;;4.70;;
53652;SDS011;39553;52.954;5.932;2023-03-23T04:37:51;14.30;;;4.13;;
53652;SDS011;39553;52.954;5.932;2023-03-23T04:40:18;10.93;;;4.00;;
53652;SDS011;39553;52.954;5.932;2023-03-23T04:42:44;15.65;;;5.93;;
53652;SDS011;39553;52.954;5.932;2023-03-23T04:45:22;12.27;;;5.20;;
53652;SDS011;39553;52.954;5.932;2023-03-23T04:47:49;7.35;;;3.15;;
53652;SDS011;39553;52.954;5.932;2023-03-23T04:50:41;12.25;;;4.15;;
53652;SDS011;39553;52.954;5.932;2023-03-23T04:53:11;17.17;;;4.72;;
53652;SDS011;39553;52.954;5.932;2023-03-23T04:55:39;8.63;;;3.15;;
53652;SDS011;39553;52.954;5.932;2023-03-23T04:58:10;13.57;;;3.90;;
53652;SDS011;39553;52.954;5.932;2023-03-23T05:00:43;11.07;;;2.65;;
53652;SDS011;39553;52.954;5.932;2023-03-23T05:03:20;10.55;;;2.65;;
53652;SDS011;39553;52.954;5.932;2023-03-23T05:05:52;10.02;;;2.72;;
53652;SDS011;39553;52.954;5.932;2023-03-23T05:08:19;12.18;;;2.67;;
53652;SDS011;39553;52.954;5.932;2023-03-23T05:10:59;14.98;;;3.00;;
53652;SDS011;39553;52.954;5.932;2023-03-23T05:13:49;19.63;;;4.18;;
53652;SDS011;39553;52.954;5.932;2023-03-23T05:16:17;18.83;;;2.92;;
53652;SDS011;39553;52.954;5.932;2023-03-23T05:18:54;12.07;;;3.78;;
53652;SDS011;39553;52.954;5.932;2023-03-23T05:21:38;13.32;;;3.17;;
53652;SDS011;39553;52.954;5.932;2023-03-23T05:24:09;17.58;;;3.28;;
53652;SDS011;39553;52.954;5.932;2023-03-23T05:26:45;13.43;;;3.28;;
53652;SDS011;39553;52.954;5.932;2023-03-23T05:29:21;20.20;;;3.65;;
53652;SDS011;39553;52.954;5.932;2023-03-23T05:31:49;18.20;;;3.83;;
53652;SDS011;39553;52.954;5.932;2023-03-23T05:34:18;18.05;;;3.90;;
53652;SDS011;39553;52.954;5.932;2023-03-23T05:36:47;16.08;;;3.70;;
53652;SDS011;39553;52.954;5.932;2023-03-23T05:39:25;19.10;;;3.00;;
53652;SDS011;39553;52.954;5.932;2023-03-23T05:41:57;9.88;;;2.42;;
53652;SDS011;39553;52.954;5.932;2023-03-23T05:44:35;13.45;;;3.22;;
53652;SDS011;39553;52.954;5.932;2023-03-23T05:47:02;17.40;;;3.35;;
53652;SDS011;39553;52.954;5.932;2023-03-23T05:49:35;16.45;;;4.20;;
53652;SDS011;39553;52.954;5.932;2023-03-23T05:52:07;23.33;;;4.07;;
53652;SDS011;39553;52.954;5.932;2023-03-23T05:54:38;11.20;;;2.47;;
53652;SDS011;39553;52.954;5.932;2023-03-23T05:57:04;19.17;;;3.75;;
53652;SDS011;39553;52.954;5.932;2023-03-23T05:59:45;18.45;;;4.70;;
53652;SDS011;39553;52.954;5.932;2023-03-23T06:02:25;11.32;;;2.92;;
53652;SDS011;39553;52.954;5.932;2023-03-23T06:05:03;20.40;;;4.20;;
53652;SDS011;39553;52.954;5.932;2023-03-23T06:07:42;10.65;;;2.65;;
53652;SDS011;39553;52.954;5.932;2023-03-23T06:10:15;17.00;;;2.80;;
53652;SDS011;39553;52.954;5.932;2023-03-23T06:12:47;15.45;;;3.45;;
53652;SDS011;39553;52.954;5.932;2023-03-23T06:15:18;25.02;;;5.40;;
53652;SDS011;39553;52.954;5.932;2023-03-23T06:17:50;10.10;;;3.55;;
53652;SDS011;39553;52.954;5.932;2023-03-23T06:20:23;13.40;;;3.17;;
53652;SDS011;39553;52.954;5.932;2023-03-23T06:23:00;14.57;;;3.92;;
53652;SDS011;39553;52.954;5.932;2023-03-23T06:25:29;17.92;;;3.45;;
53652;SDS011;39553;52.954;5.932;2023-03-23T06:27:58;18.27;;;3.17;;
53652;SDS011;39553;52.954;5.932;2023-03-23T06:30:27;14.82;;;3.90;;
53652;SDS011;39553;52.954;5.932;2023-03-23T06:32:58;15.18;;;3.28;;
53652;SDS011;39553;52.954;5.932;2023-03-23T06:35:29;17.65;;;3.58;;
53652;SDS011;39553;52.954;5.932;2023-03-23T06:40:43;15.02;;;3.05;;
53652;SDS011;39553;52.954;5.932;2023-03-23T06:43:17;18.52;;;4.13;;
53652;SDS011;39553;52.954;5.932;2023-03-23T06:45:49;16.45;;;3.42;;
53652;SDS011;39553;52.954;5.932;2023-03-23T06:48:24;11.25;;;3.33;;
53652;SDS011;39553;52.954;5.932;2023-03-23T06:50:56;28.55;;;4.55;;
53652;SDS011;39553;52.954;5.932;2023-03-23T06:53:48;24.83;;;4.38;;
53652;SDS011;39553;52.954;5.932;2023-03-23T06:56:26;16.15;;;3.67;;
53652;SDS011;39553;52.954;5.932;2023-03-23T06:59:06;15.93;;;3.60;;
53652;SDS011;39553;52.954;5.932;2023-03-23T07:01:50;18.15;;;4.25;;
53652;SDS011;39553;52.954;5.932;2023-03-23T07:04:16;23.23;;;4.30;;
53652;SDS011;39553;52.954;5.932;2023-03-23T07:06:42;20.63;;;4.95;;
53652;SDS011;39553;52.954;5.932;2023-03-23T07:09:08;13.05;;;4.65;;
53652;SDS011;39553;52.954;5.932;2023-03-23T07:11:34;28.77;;;5.15;;
53652;SDS011;39553;52.954;5.932;2023-03-23T07:14:01;24.98;;;3.60;;
53652;SDS011;39553;52.954;5.932;2023-03-23T07:16:27;20.38;;;5.25;;
53652;SDS011;39553;52.954;5.932;2023-03-23T07:18:53;18.90;;;3.72;;
53652;SDS011;39553;52.954;5.932;2023-03-23T07:21:20;22.52;;;4.20;;
53652;SDS011;39553;52.954;5.932;2023-03-23T07:23:46;18.02;;;4.10;;
53652;SDS011;39553;52.954;5.932;2023-03-23T07:26:12;15.35;;;3.88;;
53652;SDS011;39553;52.954;5.932;2023-03-23T07:28:38;13.90;;;3.30;;
53652;SDS011;39553;52.954;5.932;2023-03-23T07:31:05;18.05;;;3.70;;
53652;SDS011;39553;52.954;5.932;2023-03-23T07:33:35;19.23;;;3.97;;
53652;SDS011;39553;52.954;5.932;2023-03-23T07:36:04;14.18;;;4.10;;
53652;SDS011;39553;52.954;5.932;2023-03-23T07:38:32;20.80;;;4.25;;
53652;SDS011;39553;52.954;5.932;2023-03-23T07:40:58;16.30;;;3.42;;
53652;SDS011;39553;52.954;5.932;2023-03-23T07:43:24;13.95;;;3.70;;
53652;SDS011;39553;52.954;5.932;2023-03-23T07:45:51;11.90;;;3.78;;
53652;SDS011;39553;52.954;5.932;2023-03-23T07:48:17;21.33;;;5.30;;
53652;SDS011;39553;52.954;5.932;2023-03-23T07:50:43;20.25;;;5.32;;
53652;SDS011;39553;52.954;5.932;2023-03-23T07:53:08;22.98;;;4.78;;
53652;SDS011;39553;52.954;5.932;2023-03-23T07:55:36;18.98;;;3.85;;
53652;SDS011;39553;52.954;5.932;2023-03-23T07:58:02;19.85;;;4.20;;
53652;SDS011;39553;52.954;5.932;2023-03-23T08:00:28;22.67;;;4.47;;
53652;SDS011;39553;52.954;5.932;2023-03-23T08:02:58;23.50;;;5.25;;
53652;SDS011;39553;52.954;5.932;2023-03-23T08:05:25;35.60;;;7.65;;
53652;SDS011;39553;52.954;5.932;2023-03-23T08:07:52;15.23;;;4.43;;
53652;SDS011;39553;52.954;5.932;2023-03-23T08:10:20;19.23;;;4.15;;
53652;SDS011;39553;52.954;5.932;2023-03-23T08:12:50;17.17;;;4.40;;
53652;SDS011;39553;52.954;5.932;2023-03-23T08:15:19;29.27;;;5.93;;
53652;SDS011;39553;52.954;5.932;2023-03-23T08:17:52;16.73;;;5.28;;
53652;SDS011;39553;52.954;5.932;2023-03-23T08:20:19;23.83;;;5.55;;
53652;SDS011;39553;52.954;5.932;2023-03-23T08:22:49;26.95;;;4.78;;
53652;SDS011;39553;52.954;5.932;2023-03-23T08:27:49;16.48;;;4.03;;
53652;SDS011;39553;52.954;5.932;2023-03-23T08:30:16;20.77;;;4.70;;
53652;SDS011;39553;52.954;5.932;2023-03-23T08:32:51;26.10;;;5.20;;
53652;SDS011;39553;52.954;5.932;2023-03-23T08:35:19;28.30;;;6.13;;
53652;SDS011;39553;52.954;5.932;2023-03-23T08:37:49;26.48;;;4.85;;
53652;SDS011;39553;52.954;5.932;2023-03-23T08:40:17;25.42;;;7.07;;
53652;SDS011;39553;52.954;5.932;2023-03-23T08:42:45;17.35;;;5.22;;
53652;SDS011;39553;52.954;5.932;2023-03-23T08:45:13;18.60;;;4.38;;
53652;SDS011;39553;52.954;5.932;2023-03-23T08:47:43;21.58;;;5.43;;
53652;SDS011;39553;52.954;5.932;2023-03-23T08:50:14;23.15;;;4.85;;
53652;SDS011;39553;52.954;5.932;2023-03-23T08:52:41;22.17;;;5.30;;
53652;SDS011;39553;52.954;5.932;2023-03-23T08:55:12;23.70;;;5.43;;
53652;SDS011;39553;52.954;5.932;2023-03-23T08:57:41;23.90;;;5.13;;
53652;SDS011;39553;52.954;5.932;2023-03-23T09:00:12;21.65;;;5.55;;
53652;SDS011;39553;52.954;5.932;2023-03-23T09:02:42;22.80;;;5.03;;
53652;SDS011;39553;52.954;5.932;2023-03-23T09:05:10;18.55;;;5.47;;
53652;SDS011;39553;52.954;5.932;2023-03-23T09:07:45;15.25;;;4.95;;
53652;SDS011;39553;52.954;5.932;2023-03-23T09:10:31;27.13;;;5.30;;
53652;SDS011;39553;52.954;5.932;2023-03-23T09:13:03;22.33;;;6.32;;
53652;SDS011;39553;52.954;5.932;2023-03-23T09:15:55;30.50;;;5.95;;
53652;SDS011;39553;52.954;5.932;2023-03-23T09:18:21;19.10;;;6.35;;
53652;SDS011;39553;52.954;5.932;2023-03-23T09:20:49;20.65;;;4.68;;
53652;SDS011;39553;52.954;5.932;2023-03-23T09:23:18;28.92;;;5.60;;
53652;SDS011;39553;52.954;5.932;2023-03-23T09:25:53;21.27;;;5.93;;
53652;SDS011;39553;52.954;5.932;2023-03-23T09:28:29;20.27;;;5.70;;
53652;SDS011;39553;52.954;5.932;2023-03-23T09:30:56;22.42;;;4.72;;
53652;SDS011;39553;52.954;5.932;2023-03-23T09:33:38;22.75;;;6.13;;
53652;SDS011;39553;52.954;5.932;2023-03-23T09:36:19;20.52;;;5.03;;
53652;SDS011;39553;52.954;5.932;2023-03-23T09:38:46;19.85;;;4.47;;
53652;SDS011;39553;52.954;5.932;2023-03-23T09:49:42;20.70;;;4.90;;
53652;SDS011;39553;52.954;5.932;2023-03-23T09:52:34;15.30;;;4.28;;
53652;SDS011;39553;52.954;5.932;2023-03-23T09:55:26;24.38;;;4.50;;
53652;SDS011;39553;52.954;5.932;2023-03-23T10:00:39;23.45;;;5.65;;
53652;SDS011;39553;52.954;5.932;2023-03-23T10:03:16;22.08;;;4.63;;
53652;SDS011;39553;52.954;5.932;2023-03-23T10:05:51;21.25;;;4.50;;
53652;SDS011;39553;52.954;5.932;2023-03-23T10:08:21;19.23;;;4.13;;
53652;SDS011;39553;52.954;5.932;2023-03-23T10:22:59;17.02;;;3.47;;
53652;SDS011;39553;52.954;5.932;2023-03-23T10:25:28;14.55;;;4.00;;
53652;SDS011;39553;52.954;5.932;2023-03-23T10:28:10;12.73;;;3.45;;
53652;SDS011;39553;52.954;5.932;2023-03-23T10:30:45;18.10;;;3.65;;
53652;SDS011;39553;52.954;5.932;2023-03-23T10:36:06;8.40;;;3.38;;
53652;SDS011;39553;52.954;5.932;2023-03-23T10:38:55;10.05;;;3.22;;
53652;SDS011;39553;52.954;5.932;2023-03-23T10:41:30;14.35;;;4.40;;
53652;SDS011;39553;52.954;5.932;2023-03-23T10:43:57;17.15;;;3.83;;
53652;SDS011;39553;52.954;5.932;2023-03-23T10:49:02;14.85;;;3.78;;
53652;SDS011;39553;52.954;5.932;2023-03-23T10:51:37;15.20;;;3.27;;
53652;SDS011;39553;52.954;5.932;2023-03-23T10:54:07;14.27;;;3.13;;
53652;SDS011;39553;52.954;5.932;2023-03-23T10:59:14;35.55;;;4.38;;
53652;SDS011;39553;52.954;5.932;2023-03-23T11:01:45;15.82;;;3.60;;
53652;SDS011;39553;52.954;5.932;2023-03-23T11:04:17;8.65;;;2.63;;
53652;SDS011;39553;52.954;5.932;2023-03-23T11:06:45;11.95;;;3.40;;
53652;SDS011;39553;52.954;5.932;2023-03-23T11:12:17;12.65;;;3.83;;
53652;SDS011;39553;52.954;5.932;2023-03-23T11:14:48;13.70;;;3.22;;
53652;SDS011;39553;52.954;5.932;2023-03-23T11:17:22;15.77;;;3.00;;
53652;SDS011;39553;52.954;5.932;2023-03-23T11:20:09;11.65;;;3.30;;
53652;SDS011;39553;52.954;5.932;2023-03-23T11:22:37;9.02;;;2.63;;
53652;SDS011;39553;52.954;5.932;2023-03-23T11:25:04;17.25;;;3.75;;
53652;SDS011;39553;52.954;5.932;2023-03-23T11:27:31;14.02;;;3.25;;
53652;SDS011;39553;52.954;5.932;2023-03-23T11:30:07;11.98;;;3.65;;
53652;SDS011;39553;52.954;5.932;2023-03-23T11:32:49;18.38;;;3.92;;
53652;SDS011;39553;52.954;5.932;2023-03-23T11:35:27;12.05;;;3.05;;
53652;SDS011;39553;52.954;5.932;2023-03-23T11:37:57;12.60;;;3.20;;
53652;SDS011;39553;52.954;5.932;2023-03-23T11:40:29;13.55;;;3.03;;
53652;SDS011;39553;52.954;5.932;2023-03-23T11:43:13;12.98;;;2.88;;
53652;SDS011;39553;52.954;5.932;2023-03-23T11:53:47;14.10;;;3.95;;
53652;SDS011;39553;52.954;5.932;2023-03-23T11:56:41;13.52;;;3.13;;
53652;SDS011;39553;52.954;5.932;2023-03-23T12:02:37;20.75;;;4.45;;
53652;SDS011;39553;52.954;5.932;2023-03-23T12:11:07;13.60;;;2.95;;
53652;SDS011;39553;52.954;5.932;2023-03-23T12:19:21;13.00;;;3.00;;
53652;SDS011;39553;52.954;5.932;2023-03-23T12:27:51;15.30;;;3.10;;
53652;SDS011;39553;52.954;5.932;2023-03-23T12:30:29;6.50;;;2.35;;
53652;SDS011;39553;52.954;5.932;2023-03-23T12:33:22;9.07;;;2.05;;
53652;SDS011;39553;52.954;5.932;2023-03-23T12:41:56;18.95;;;3.53;;
53652;SDS011;39553;52.954;5.932;2023-03-23T12:45:05;9.18;;;2.75;;
53652;SDS011;39553;52.954;5.932;2023-03-23T12:53:12;11.57;;;2.80;;
53652;SDS011;39553;52.954;5.932;2023-03-23T12:55:46;9.88;;;2.45;;
53652;SDS011;39553;52.954;5.932;2023-03-23T12:58:31;10.25;;;2.92;;
53652;SDS011;39553;52.954;5.932;2023-03-23T13:01:04;14.13;;;2.75;;
53652;SDS011;39553;52.954;5.932;2023-03-23T13:03:39;17.88;;;3.30;;
53652;SDS011;39553;52.954;5.932;2023-03-23T13:06:23;11.75;;;2.78;;
53652;SDS011;39553;52.954;5.932;2023-03-23T13:12:16;25.20;;;3.95;;
53652;SDS011;39553;52.954;5.932;2023-03-23T13:17:51;15.77;;;2.97;;
53652;SDS011;39553;52.954;5.932;2023-03-23T13:23:05;19.58;;;3.95;;
53652;SDS011;39553;52.954;5.932;2023-03-23T13:25:45;8.38;;;2.63;;
53652;SDS011;39553;52.954;5.932;2023-03-23T13:28:23;15.15;;;2.95;;
53652;SDS011;39553;52.954;5.932;2023-03-23T13:30:54;11.60;;;2.97;;
53652;SDS011;39553;52.954;5.932;2023-03-23T13:33:58;17.65;;;3.28;;
53652;SDS011;39553;52.954;5.932;2023-03-23T13:36:40;12.82;;;3.63;;
53652;SDS011;39553;52.954;5.932;2023-03-23T13:39:21;18.63;;;4.43;;
53652;SDS011;39553;52.954;5.932;2023-03-23T13:42:17;8.60;;;2.40;;
53652;SDS011;39553;52.954;5.932;2023-03-23T13:47:26;11.77;;;3.55;;
53652;SDS011;39553;52.954;5.932;2023-03-23T13:52:56;10.73;;;2.72;;
53652;SDS011;39553;52.954;5.932;2023-03-23T14:01:09;12.23;;;3.13;;
53652;SDS011;39553;52.954;5.932;2023-03-23T14:03:45;11.73;;;3.13;;
53652;SDS011;39553;52.954;5.932;2023-03-23T14:06:24;10.40;;;2.53;;
53652;SDS011;39553;52.954;5.932;2023-03-23T14:12:53;14.13;;;2.47;;
53652;SDS011;39553;52.954;5.932;2023-03-23T14:16:13;9.68;;;2.53;;
53652;SDS011;39553;52.954;5.932;2023-03-23T14:22:39;8.98;;;1.98;;
53652;SDS011;39553;52.954;5.932;2023-03-23T14:25:58;8.63;;;2.40;;
53652;SDS011;39553;52.954;5.932;2023-03-23T14:28:36;11.00;;;3.35;;
53652;SDS011;39553;52.954;5.932;2023-03-23T14:31:18;8.45;;;3.15;;
53652;SDS011;39553;52.954;5.932;2023-03-23T14:34:01;5.57;;;2.40;;
53652;SDS011;39553;52.954;5.932;2023-03-23T14:36:42;11.95;;;2.22;;
53652;SDS011;39553;52.954;5.932;2023-03-23T14:41:56;14.68;;;4.07;;
53652;SDS011;39553;52.954;5.932;2023-03-23T14:44:34;9.02;;;2.30;;
53652;SDS011;39553;52.954;5.932;2023-03-23T14:47:07;17.00;;;2.88;;
53652;SDS011;39553;52.954;5.932;2023-03-23T14:49:44;8.80;;;2.30;;
53652;SDS011;39553;52.954;5.932;2023-03-23T14:52:17;10.47;;;2.07;;
53652;SDS011;39553;52.954;5.932;2023-03-23T14:54:53;6.97;;;1.95;;
53652;SDS011;39553;52.954;5.932;2023-03-23T14:59:49;12.95;;;2.95;;
53652;SDS011;39553;52.954;5.932;2023-03-23T15:02:24;15.13;;;3.38;;
53652;SDS011;39553;52.954;5.932;2023-03-23T15:05:13;6.68;;;2.42;;
53652;SDS011;39553;52.954;5.932;2023-03-23T15:07:47;10.98;;;2.38;;
53652;SDS011;39553;52.954;5.932;2023-03-23T15:10:23;9.50;;;2.03;;
53652;SDS011;39553;52.954;5.932;2023-03-23T15:13:17;11.98;;;3.05;;
53652;SDS011;39553;52.954;5.932;2023-03-23T15:16:18;13.63;;;2.78;;
53652;SDS011;39553;52.954;5.932;2023-03-23T15:18:49;13.80;;;3.13;;
53652;SDS011;39553;52.954;5.932;2023-03-23T15:21:22;11.18;;;3.08;;
53652;SDS011;39553;52.954;5.932;2023-03-23T15:23:55;14.23;;;4.28;;
53652;SDS011;39553;52.954;5.932;2023-03-23T15:26:27;17.23;;;4.22;;
53652;SDS011;39553;52.954;5.932;2023-03-23T15:29:20;17.55;;;3.33;;
53652;SDS011;39553;52.954;5.932;2023-03-23T15:31:57;14.15;;;3.50;;
53652;SDS011;39553;52.954;5.932;2023-03-23T15:37:30;15.93;;;3.40;;
53652;SDS011;39553;52.954;5.932;2023-03-23T15:40:02;12.43;;;3.22;;
53652;SDS011;39553;52.954;5.932;2023-03-23T15:42:37;16.70;;;3.70;;
53652;SDS011;39553;52.954;5.932;2023-03-23T15:47:57;16.00;;;4.28;;
53652;SDS011;39553;52.954;5.932;2023-03-23T15:56:02;18.02;;;3.50;;
53652;SDS011;39553;52.954;5.932;2023-03-23T15:59:07;12.40;;;3.47;;
53652;SDS011;39553;52.954;5.932;2023-03-23T16:01:53;14.15;;;3.35;;
53652;SDS011;39553;52.954;5.932;2023-03-23T16:04:25;15.45;;;3.83;;
53652;SDS011;39553;52.954;5.932;2023-03-23T16:06:59;14.95;;;3.97;;
53652;SDS011;39553;52.954;5.932;2023-03-23T16:09:39;13.65;;;3.15;;
53652;SDS011;39553;52.954;5.932;2023-03-23T16:12:25;11.88;;;3.08;;
53652;SDS011;39553;52.954;5.932;2023-03-23T16:14:51;14.38;;;2.53;;
53652;SDS011;39553;52.954;5.932;2023-03-23T16:17:28;13.35;;;3.95;;
53652;SDS011;39553;52.954;5.932;2023-03-23T16:20:27;21.92;;;3.47;;
53652;SDS011;39553;52.954;5.932;2023-03-23T16:22:55;10.45;;;2.95;;
53652;SDS011;39553;52.954;5.932;2023-03-23T16:28:52;18.85;;;3.83;;
53652;SDS011;39553;52.954;5.932;2023-03-23T16:31:25;16.08;;;3.22;;
53652;SDS011;39553;52.954;5.932;2023-03-23T16:34:09;12.80;;;3.83;;
53652;SDS011;39553;52.954;5.932;2023-03-23T16:36:46;13.32;;;2.67;;
53652;SDS011;39553;52.954;5.932;2023-03-23T16:39:20;15.25;;;3.65;;
53652;SDS011;39553;52.954;5.932;2023-03-23T16:47:52;16.33;;;3.53;;
53652;SDS011;39553;52.954;5.932;2023-03-23T16:50:43;21.13;;;4.47;;
53652;SDS011;39553;52.954;5.932;2023-03-23T16:53:31;15.32;;;3.83;;
53652;SDS011;39553;52.954;5.932;2023-03-23T16:56:21;13.65;;;4.13;;
53652;SDS011;39553;52.954;5.932;2023-03-23T16:59:33;22.07;;;3.67;;
53652;SDS011;39553;52.954;5.932;2023-03-23T17:02:09;17.85;;;4.18;;
53652;SDS011;39553;52.954;5.932;2023-03-23T17:05:10;19.17;;;4.53;;
53652;SDS011;39553;52.954;5.932;2023-03-23T17:11:31;13.90;;;3.78;;
53652;SDS011;39553;52.954;5.932;2023-03-23T17:17:03;24.63;;;4.53;;
53652;SDS011;39553;52.954;5.932;2023-03-23T17:33:31;15.88;;;4.72;;
53652;SDS011;39553;52.954;5.932;2023-03-23T17:36:33;18.50;;;4.45;;
53652;SDS011;39553;52.954;5.932;2023-03-23T17:42:48;21.98;;;4.88;;
53652;SDS011;39553;52.954;5.932;2023-03-23T17:45:40;14.30;;;4.38;;
53652;SDS011;39553;52.954;5.932;2023-03-23T17:48:52;18.10;;;4.07;;
53652;SDS011;39553;52.954;5.932;2023-03-23T17:52:17;17.05;;;4.18;;
53652;SDS011;39553;52.954;5.932;2023-03-23T17:55:23;20.88;;;4.45;;
53652;SDS011;39553;52.954;5.932;2023-03-23T18:02:43;21.52;;;7.03;;
53652;SDS011;39553;52.954;5.932;2023-03-23T18:05:49;28.95;;;7.85;;
53652;SDS011;39553;52.954;5.932;2023-03-23T18:09:08;28.42;;;7.70;;
53652;SDS011;39553;52.954;5.932;2023-03-23T18:12:03;22.50;;;5.80;;
53652;SDS011;39553;52.954;5.932;2023-03-23T18:14:57;21.58;;;4.60;;
53652;SDS011;39553;52.954;5.932;2023-03-23T18:18:28;12.93;;;3.63;;
53652;SDS011;39553;52.954;5.932;2023-03-23T18:21:40;18.20;;;4.93;;
53652;SDS011;39553;52.954;5.932;2023-03-23T18:29:14;16.13;;;3.55;;
53652;SDS011;39553;52.954;5.932;2023-03-23T18:35:54;19.98;;;4.40;;
53652;SDS011;39553;52.954;5.932;2023-03-23T18:43:42;19.67;;;4.88;;
53652;SDS011;39553;52.954;5.932;2023-03-23T18:50:50;22.02;;;6.47;;
53652;SDS011;39553;52.954;5.932;2023-03-23T18:53:59;21.08;;;5.25;;
53652;SDS011;39553;52.954;5.932;2023-03-23T19:00:54;17.35;;;5.93;;
53652;SDS011;39553;52.954;5.932;2023-03-23T19:14:57;16.20;;;4.97;;
53652;SDS011;39553;52.954;5.932;2023-03-23T19:18:41;16.02;;;4.82;;
53652;SDS011;39553;52.954;5.932;2023-03-23T21:28:06;12.05;;;5.45;;
53652;SDS011;39553;52.954;5.932;2023-03-23T21:30:35;19.17;;;6.78;;
53652;SDS011;39553;52.954;5.932;2023-03-23T21:33:25;17.83;;;7.13;;
53652;SDS011;39553;52.954;5.932;2023-03-23T21:35:57;17.00;;;6.35;;
53652;SDS011;39553;52.954;5.932;2023-03-23T21:38:50;20.20;;;6.72;;
53652;SDS011;39553;52.954;5.932;2023-03-23T21:41:22;20.02;;;6.90;;
53652;SDS011;39553;52.954;5.932;2023-03-23T21:43:52;17.52;;;7.40;;
53652;SDS011;39553;52.954;5.932;2023-03-23T21:46:30;19.35;;;7.50;;
53652;SDS011;39553;52.954;5.932;2023-03-23T21:48:59;22.02;;;7.13;;
